Time;durP1;ratioP1;P1;durP2;ratioP2;P2;SDS_P1;SDS_P2;PMS_P1;PMS_P2;Temp;Humidity;BMP_temperature;BMP_pressure;BME280_temperature;BME280_humidity;BME280_pressure;Samples;Min_cycle;Max_cycle;Signal;HPM_P1;HPM_P2
2024/01/16 00:00:32;;;;;;;3.92;3.17;;;1.10;99.90;;;;;;5013424;28;20230;-64
2024/01/16 00:03:00;;;;;;;2.30;1.98;;;1.20;99.90;;;;;;5004363;28;20774;-64
2024/01/16 00:05:27;;;;;;;3.45;2.97;;;1.10;99.90;;;;;;5007800;28;20258;-63
2024/01/16 00:07:55;;;;;;;3.95;3.05;;;1.10;99.90;;;;;;5013044;28;20290;-64
2024/01/16 00:10:21;;;;;;;4.60;3.55;;;1.10;99.90;;;;;;5007059;28;20204;-63
2024/01/16 00:12:48;;;;;;;2.58;2.30;;;1.10;99.90;;;;;;5003481;28;20227;-64
2024/01/16 00:15:15;;;;;;;4.78;2.45;;;1.10;99.90;;;;;;5013396;28;20299;-64
2024/01/16 00:17:42;;;;;;;5.07;2.92;;;1.10;99.90;;;;;;5012859;28;20270;-64
2024/01/16 00:20:11;;;;;;;3.00;2.70;;;1.10;99.90;;;;;;5013046;28;20233;-64
2024/01/16 00:22:38;;;;;;;6.90;3.33;;;1.20;99.90;;;;;;5012423;28;20220;-63
2024/01/16 00:25:05;;;;;;;4.00;2.95;;;1.10;99.90;;;;;;5004854;28;20200;-64
2024/01/16 00:27:32;;;;;;;3.25;2.95;;;1.10;99.90;;;;;;5012590;28;20200;-63
2024/01/16 00:29:59;;;;;;;2.92;2.67;;;1.10;99.90;;;;;;5012974;28;20589;-64
2024/01/16 00:32:26;;;;;;;2.40;2.25;;;1.10;99.90;;;;;;5013071;28;20232;-63
2024/01/16 00:34:53;;;;;;;2.60;2.30;;;1.10;99.90;;;;;;5013058;28;20266;-64
2024/01/16 00:37:21;;;;;;;3.25;2.58;;;1.10;99.90;;;;;;5012228;28;20207;-64
2024/01/16 00:39:48;;;;;;;3.13;2.88;;;1.10;99.90;;;;;;5012470;28;20228;-64
2024/01/16 00:42:15;;;;;;;6.55;3.53;;;1.10;99.90;;;;;;5012861;28;20608;-63
2024/01/16 00:44:42;;;;;;;5.82;3.22;;;1.10;99.90;;;;;;5011953;28;20310;-63
2024/01/16 00:47:09;;;;;;;3.05;2.85;;;1.10;99.90;;;;;;5011986;28;20291;-64
2024/01/16 00:49:37;;;;;;;3.30;3.10;;;1.10;99.90;;;;;;5011851;28;20234;-64
2024/01/16 00:52:04;;;;;;;3.95;2.83;;;1.10;99.90;;;;;;5012565;28;20231;-63
2024/01/16 00:54:32;;;;;;;3.78;3.47;;;1.10;99.90;;;;;;5012931;28;20203;-63
2024/01/16 00:56:59;;;;;;;3.28;3.15;;;1.10;99.90;;;;;;5012983;28;20208;-63
2024/01/16 00:59:26;;;;;;;3.65;3.35;;;1.10;99.90;;;;;;5012144;28;20224;-64
2024/01/16 01:01:53;;;;;;;4.03;3.17;;;1.10;99.90;;;;;;5012301;28;20227;-63
2024/01/16 01:04:20;;;;;;;4.30;3.20;;;1.10;99.90;;;;;;5012182;28;20207;-64
2024/01/16 01:06:47;;;;;;;3.75;3.10;;;1.10;99.90;;;;;;5012471;28;20750;-64
2024/01/16 01:09:13;;;;;;;7.13;3.72;;;1.10;99.90;;;;;;5012481;28;20208;-63
2024/01/16 01:11:42;;;;;;;3.28;3.08;;;1.10;99.90;;;;;;5012396;28;20234;-63
2024/01/16 01:14:09;;;;;;;3.67;2.80;;;1.10;99.90;;;;;;5012503;28;20235;-64
2024/01/16 01:16:35;;;;;;;3.72;3.25;;;1.10;99.90;;;;;;5012234;28;20227;-64
2024/01/16 01:19:03;;;;;;;5.50;3.00;;;1.10;99.90;;;;;;5012214;28;20273;-63
2024/01/16 01:21:30;;;;;;;4.00;3.35;;;1.10;99.90;;;;;;5012142;28;20247;-63
2024/01/16 01:23:57;;;;;;;3.38;3.08;;;1.10;99.90;;;;;;5012311;28;20216;-63
2024/01/16 01:26:24;;;;;;;5.47;3.72;;;1.10;99.90;;;;;;5011987;28;20626;-63
2024/01/16 01:28:52;;;;;;;3.85;3.50;;;1.10;99.90;;;;;;5012193;28;20208;-63
2024/01/16 01:31:19;;;;;;;5.85;3.20;;;1.10;99.90;;;;;;5011452;28;20219;-63
2024/01/16 01:33:46;;;;;;;4.57;4.18;;;1.10;99.90;;;;;;5012393;28;20303;-61
2024/01/16 01:36:12;;;;;;;4.68;4.22;;;1.10;99.90;;;;;;5012401;28;20242;-62
2024/01/16 01:38:39;;;;;;;5.88;4.28;;;1.20;99.90;;;;;;5012080;28;20235;-61
2024/01/16 01:41:06;;;;;;;4.25;3.85;;;1.20;99.90;;;;;;5011878;28;20294;-62
2024/01/16 01:43:33;;;;;;;4.20;3.78;;;1.10;99.90;;;;;;5011658;28;20296;-63
2024/01/16 01:46:19;;;;;;;5.40;4.20;;;1.10;99.90;;;;;;5011757;28;20210;-61
2024/01/16 01:48:48;;;;;;;4.13;3.60;;;1.20;99.90;;;;;;5012072;28;20217;-61
2024/01/16 01:51:18;;;;;;;4.53;3.85;;;1.20;99.90;;;;;;5011631;28;20208;-61
2024/01/16 01:53:45;;;;;;;6.30;3.75;;;1.20;99.90;;;;;;5011978;28;20208;-62
2024/01/16 01:56:16;;;;;;;4.55;3.90;;;1.20;99.90;;;;;;5011839;28;20754;-62
2024/01/16 01:58:45;;;;;;;3.80;3.60;;;1.20;99.90;;;;;;5011544;28;20290;-62
2024/01/16 02:01:15;;;;;;;3.85;3.63;;;1.20;99.90;;;;;;5011644;28;20217;-62
2024/01/16 02:03:44;;;;;;;4.50;3.42;;;1.20;99.90;;;;;;5012277;28;20290;-62
2024/01/16 02:06:12;;;;;;;6.45;3.70;;;1.10;99.90;;;;;;5012682;28;20210;-63
2024/01/16 02:08:39;;;;;;;5.72;3.97;;;1.10;99.90;;;;;;5011530;28;20207;-63
2024/01/16 02:11:07;;;;;;;7.07;5.65;;;1.10;99.90;;;;;;5011728;28;20250;-63
2024/01/16 02:13:34;;;;;;;5.47;4.47;;;1.10;99.90;;;;;;5011111;28;20228;-63
2024/01/16 02:16:00;;;;;;;8.43;4.60;;;1.10;99.90;;;;;;5011380;28;20334;-62
2024/01/16 02:18:28;;;;;;;4.65;4.32;;;1.10;99.90;;;;;;5011280;28;20295;-63
2024/01/16 02:21:00;;;;;;;5.00;4.60;;;1.10;99.90;;;;;;5011520;28;20232;-62
2024/01/16 02:23:29;;;;;;;4.28;3.92;;;1.20;99.90;;;;;;5011370;28;20325;-63
2024/01/16 02:25:55;;;;;;;4.53;4.03;;;1.20;99.90;;;;;;5011754;28;20282;-63
2024/01/16 02:28:22;;;;;;;8.77;5.07;;;1.10;99.90;;;;;;5011498;28;20217;-62
2024/01/16 02:30:49;;;;;;;5.50;3.78;;;1.10;99.90;;;;;;5011518;28;20700;-63
2024/01/16 02:33:16;;;;;;;7.47;5.70;;;1.10;99.90;;;;;;5011285;28;20235;-63
2024/01/16 02:35:43;;;;;;;8.98;3.75;;;1.10;99.90;;;;;;5011470;28;20211;-62
2024/01/16 02:38:09;;;;;;;7.53;4.88;;;1.10;99.90;;;;;;5011453;28;20210;-63
2024/01/16 02:40:37;;;;;;;4.77;4.37;;;1.10;99.90;;;;;;5010971;28;20820;-63
2024/01/16 02:43:04;;;;;;;7.30;4.57;;;1.20;99.90;;;;;;5011580;28;20558;-63
2024/01/16 02:45:31;;;;;;;4.30;3.90;;;1.10;99.90;;;;;;5011206;28;20246;-61
2024/01/16 02:47:57;;;;;;;5.20;4.15;;;1.10;99.90;;;;;;5011344;28;20215;-62
2024/01/16 02:50:24;;;;;;;6.10;4.80;;;1.10;99.90;;;;;;5010437;28;20211;-63
2024/01/16 02:52:51;;;;;;;4.82;4.30;;;1.10;99.90;;;;;;5011549;28;20246;-61
2024/01/16 02:55:18;;;;;;;5.90;4.22;;;1.10;99.90;;;;;;5011060;28;20214;-63
2024/01/16 02:57:46;;;;;;;6.10;3.50;;;1.10;99.90;;;;;;5011559;28;20229;-63
2024/01/16 03:00:14;;;;;;;4.70;4.30;;;1.10;99.90;;;;;;5010627;28;20230;-62
2024/01/16 03:02:40;;;;;;;4.82;4.30;;;1.20;99.90;;;;;;5013713;28;20263;-62
2024/01/16 03:05:08;;;;;;;4.75;4.35;;;1.20;99.90;;;;;;5014405;28;20290;-62
2024/01/16 03:07:35;;;;;;;11.57;4.57;;;1.10;99.90;;;;;;5014918;28;20214;-63
2024/01/16 03:10:02;;;;;;;5.32;4.82;;;1.10;99.90;;;;;;5014337;28;20207;-63
2024/01/16 03:12:29;;;;;;;9.95;5.22;;;1.00;99.90;;;;;;5014617;28;20232;-62
2024/01/16 03:14:57;;;;;;;7.07;4.80;;;1.00;99.90;;;;;;5014918;28;20300;-62
2024/01/16 03:17:24;;;;;;;4.93;4.53;;;0.90;99.90;;;;;;5014736;28;20214;-62
2024/01/16 03:19:51;;;;;;;4.82;4.25;;;0.90;99.90;;;;;;5014424;28;20234;-62
2024/01/16 03:22:18;;;;;;;7.25;5.63;;;0.90;99.90;;;;;;5014665;28;20235;-62
2024/01/16 03:24:45;;;;;;;6.40;5.80;;;0.90;99.90;;;;;;5014820;28;20208;-61
2024/01/16 03:27:12;;;;;;;7.78;5.50;;;0.90;99.90;;;;;;5014823;28;20298;-61
2024/01/16 03:29:38;;;;;;;10.60;6.50;;;0.90;99.90;;;;;;5014071;28;20199;-62
2024/01/16 03:32:07;;;;;;;6.65;5.63;;;0.90;99.90;;;;;;5014323;28;20238;-63
2024/01/16 03:34:34;;;;;;;5.90;5.30;;;0.90;99.90;;;;;;5014595;28;20208;-62
2024/01/16 03:37:01;;;;;;;10.13;7.55;;;0.90;99.90;;;;;;5014425;28;20302;-62
2024/01/16 03:39:28;;;;;;;8.73;6.05;;;0.90;99.90;;;;;;5014305;28;20234;-61
2024/01/16 03:41:54;;;;;;;7.50;6.38;;;0.90;99.90;;;;;;5014002;28;20714;-62
2024/01/16 03:44:20;;;;;;;6.60;5.32;;;0.80;99.90;;;;;;5014503;28;20208;-61
2024/01/16 03:46:47;;;;;;;5.57;5.07;;;0.80;99.90;;;;;;5014312;28;20653;-62
2024/01/16 03:49:15;;;;;;;7.32;5.85;;;0.80;99.90;;;;;;5014496;28;20207;-62
2024/01/16 03:51:46;;;;;;;6.95;6.10;;;0.80;99.90;;;;;;5014266;28;20612;-61
2024/01/16 03:54:12;;;;;;;10.07;6.25;;;0.80;99.90;;;;;;5014335;28;20208;-62
2024/01/16 03:56:40;;;;;;;6.60;6.00;;;0.80;99.90;;;;;;5014200;28;20298;-62
2024/01/16 03:59:06;;;;;;;6.68;5.97;;;0.80;99.90;;;;;;5014122;28;20261;-61
2024/01/16 04:01:34;;;;;;;7.85;6.68;;;0.80;99.90;;;;;;5013210;28;20227;-63
2024/01/16 04:04:01;;;;;;;8.55;7.00;;;0.80;99.90;;;;;;5014258;28;20207;-62
2024/01/16 04:06:30;;;;;;;7.07;6.38;;;0.80;99.90;;;;;;5013794;28;20218;-61
2024/01/16 04:08:57;;;;;;;8.23;6.50;;;0.80;99.90;;;;;;5013636;28;20243;-61
2024/01/16 04:11:24;;;;;;;11.65;7.28;;;0.80;99.90;;;;;;5012374;28;20238;-61
2024/01/16 04:13:51;;;;;;;8.35;6.75;;;0.70;99.90;;;;;;5013725;28;20210;-62
2024/01/16 04:16:17;;;;;;;7.88;6.10;;;0.80;99.90;;;;;;5014273;28;20588;-63
2024/01/16 04:18:44;;;;;;;7.85;7.10;;;0.70;99.90;;;;;;5015631;28;20212;-63
2024/01/16 04:21:11;;;;;;;8.90;7.10;;;0.70;99.90;;;;;;5014599;28;20234;-63
2024/01/16 04:23:40;;;;;;;7.47;5.57;;;0.80;99.90;;;;;;5013841;28;20250;-63
2024/01/16 04:26:07;;;;;;;8.32;6.13;;;0.80;99.90;;;;;;5013731;28;20299;-62
2024/01/16 04:28:34;;;;;;;11.90;7.40;;;0.80;99.90;;;;;;5013631;28;20210;-63
2024/01/16 04:31:02;;;;;;;6.85;6.07;;;0.80;99.90;;;;;;5013705;28;20310;-63
2024/01/16 04:33:29;;;;;;;6.82;6.13;;;0.80;99.90;;;;;;5013513;28;20741;-63
2024/01/16 04:35:56;;;;;;;6.47;5.90;;;0.80;99.90;;;;;;5013487;28;20218;-63
2024/01/16 04:38:23;;;;;;;11.90;6.82;;;0.80;99.90;;;;;;5013492;28;20212;-62
2024/01/16 04:40:52;;;;;;;8.13;7.38;;;0.80;99.90;;;;;;5013719;28;20232;-63
2024/01/16 04:43:18;;;;;;;10.65;7.18;;;0.70;99.90;;;;;;5013256;28;20228;-61
2024/01/16 04:45:46;;;;;;;8.95;6.63;;;0.60;99.90;;;;;;5013465;28;20204;-63
2024/01/16 04:48:12;;;;;;;8.68;7.75;;;0.60;99.90;;;;;;5013399;28;20204;-62
2024/01/16 04:50:39;;;;;;;7.80;6.82;;;0.60;99.90;;;;;;5013177;28;20207;-63
2024/01/16 04:53:06;;;;;;;9.48;8.68;;;0.60;99.90;;;;;;5013053;28;20237;-63
2024/01/16 04:55:33;;;;;;;12.65;8.18;;;0.60;99.90;;;;;;5013036;28;20215;-63
2024/01/16 04:58:01;;;;;;;7.70;7.00;;;0.60;99.90;;;;;;5013257;28;20211;-63
2024/01/16 05:00:28;;;;;;;10.38;6.95;;;0.50;99.90;;;;;;5012824;28;20736;-62
2024/01/16 05:02:55;;;;;;;12.65;6.95;;;0.60;99.90;;;;;;5013073;28;20232;-61
2024/01/16 05:05:22;;;;;;;8.75;7.85;;;0.60;99.90;;;;;;5012978;28;20214;-62
2024/01/16 05:07:48;;;;;;;7.38;6.35;;;0.50;99.90;;;;;;5012854;28;20318;-63
2024/01/16 05:10:15;;;;;;;7.90;7.05;;;0.50;99.90;;;;;;5012613;28;20722;-63
2024/01/16 05:12:42;;;;;;;7.57;6.40;;;0.50;99.90;;;;;;5012941;28;20315;-62
2024/01/16 05:15:12;;;;;;;9.30;8.35;;;0.50;99.90;;;;;;5012722;28;20302;-61
2024/01/16 05:17:39;;;;;;;8.43;6.78;;;0.50;99.90;;;;;;5012782;28;20294;-62
2024/01/16 05:20:07;;;;;;;6.80;6.18;;;0.40;99.90;;;;;;5012515;28;20378;-62
2024/01/16 05:22:34;;;;;;;8.93;7.88;;;0.40;99.90;;;;;;5012379;28;20230;-61
2024/01/16 05:25:01;;;;;;;10.70;6.93;;;0.40;99.90;;;;;;5012329;28;20298;-61
2024/01/16 05:27:28;;;;;;;13.93;7.38;;;0.40;99.90;;;;;;5012656;28;20219;-62
2024/01/16 05:29:55;;;;;;;9.43;7.38;;;0.40;99.90;;;;;;5012339;28;20298;-62
2024/01/16 05:32:23;;;;;;;8.52;7.18;;;0.50;99.90;;;;;;5012382;28;20240;-62
2024/01/16 05:34:50;;;;;;;7.35;6.13;;;0.50;99.90;;;;;;5012418;28;20769;-62
2024/01/16 05:37:17;;;;;;;8.07;7.28;;;0.40;99.90;;;;;;5011799;28;20214;-61
2024/01/16 05:39:44;;;;;;;7.45;6.22;;;0.40;99.90;;;;;;5012098;28;20298;-62
2024/01/16 05:42:11;;;;;;;9.10;6.93;;;0.40;99.90;;;;;;5011724;28;20589;-61
2024/01/16 05:44:38;;;;;;;7.00;6.35;;;0.40;99.90;;;;;;5012176;28;20203;-62
2024/01/16 05:47:05;;;;;;;7.22;6.53;;;0.40;99.90;;;;;;5012232;28;20219;-62
2024/01/16 05:49:33;;;;;;;7.95;6.78;;;0.30;99.90;;;;;;5011970;28;20208;-62
2024/01/16 05:52:00;;;;;;;6.93;6.32;;;0.30;99.90;;;;;;5011642;28;20697;-62
2024/01/16 05:54:28;;;;;;;7.88;6.03;;;0.30;99.90;;;;;;5012176;28;20199;-62
2024/01/16 05:56:55;;;;;;;9.73;6.20;;;0.20;99.90;;;;;;5011760;28;20204;-62
2024/01/16 05:59:22;;;;;;;9.82;7.88;;;0.20;99.90;;;;;;5012133;28;20230;-61
2024/01/16 06:01:50;;;;;;;7.60;7.00;;;0.20;99.90;;;;;;5011688;28;20782;-61
2024/01/16 06:04:17;;;;;;;8.25;5.88;;;0.20;99.90;;;;;;5011926;28;20203;-62
2024/01/16 06:06:47;;;;;;;6.72;5.50;;;0.20;99.90;;;;;;5011856;28;20212;-62
2024/01/16 06:09:15;;;;;;;9.13;6.05;;;0.20;99.90;;;;;;5012006;28;20212;-61
2024/01/16 06:11:42;;;;;;;8.13;7.15;;;0.20;99.90;;;;;;5011777;28;20230;-61
2024/01/16 06:14:11;;;;;;;7.25;6.55;;;0.20;99.90;;;;;;5011917;28;20306;-62
2024/01/16 06:16:38;;;;;;;10.32;8.98;;;0.20;99.90;;;;;;5011841;28;20222;-60
2024/01/16 06:19:05;;;;;;;6.53;5.82;;;0.20;99.90;;;;;;5011186;28;20204;-61
2024/01/16 06:21:32;;;;;;;8.55;6.78;;;0.10;99.90;;;;;;5011228;28;20231;-61
2024/01/16 06:24:00;;;;;;;10.27;7.32;;;0.10;99.90;;;;;;5003728;28;20212;-61
2024/01/16 06:26:27;;;;;;;9.27;6.75;;;0.10;99.90;;;;;;5010321;28;20208;-62
2024/01/16 06:28:54;;;;;;;7.22;6.50;;;0.10;99.90;;;;;;5011001;28;20207;-61
2024/01/16 06:31:21;;;;;;;8.68;7.30;;;0.00;99.90;;;;;;5011207;28;20668;-61
2024/01/16 06:33:47;;;;;;;9.13;7.47;;;0.10;99.90;;;;;;5012000;28;20216;-61
2024/01/16 06:36:14;;;;;;;8.40;7.18;;;0.00;99.90;;;;;;5012116;28;20818;-62
2024/01/16 06:38:41;;;;;;;6.80;6.15;;;0.10;99.90;;;;;;5015737;28;20213;-62
2024/01/16 06:41:09;;;;;;;11.55;6.90;;;0.00;99.90;;;;;;5015042;28;20230;-61
2024/01/16 06:43:36;;;;;;;9.25;7.68;;;0.00;99.90;;;;;;5015341;28;20598;-62
2024/01/16 06:46:03;;;;;;;9.80;7.15;;;0.00;99.90;;;;;;5014919;28;20596;-61
2024/01/16 06:48:30;;;;;;;9.55;7.45;;;0.10;99.90;;;;;;5015333;28;20290;-61
2024/01/16 06:50:57;;;;;;;8.93;8.02;;;0.00;99.90;;;;;;5014792;28;20206;-61
2024/01/16 06:53:24;;;;;;;11.13;7.72;;;0.00;99.90;;;;;;5015409;28;20235;-61
2024/01/16 06:55:51;;;;;;;6.45;5.85;;;0.00;99.90;;;;;;5014803;28;20215;-61
2024/01/16 06:58:19;;;;;;;11.45;7.40;;;-0.10;99.90;;;;;;5015243;28;20212;-61
2024/01/16 07:00:47;;;;;;;8.02;7.00;;;-0.10;99.90;;;;;;5014754;28;20254;-61
2024/01/16 07:03:14;;;;;;;9.73;7.15;;;-0.20;99.90;;;;;;5014757;28;20722;-62
2024/01/16 07:05:41;;;;;;;9.55;7.90;;;-0.20;99.90;;;;;;5015280;28;20295;-61
2024/01/16 07:08:08;;;;;;;9.40;7.28;;;-0.20;99.90;;;;;;5015015;28;20666;-61
2024/01/16 07:10:35;;;;;;;9.57;7.60;;;-0.30;99.90;;;;;;5014820;28;20212;-61
2024/01/16 07:13:02;;;;;;;11.27;8.40;;;-0.30;99.90;;;;;;5014539;28;20255;-61
2024/01/16 07:15:30;;;;;;;12.25;8.13;;;-0.40;99.90;;;;;;5015011;28;20290;-61
2024/01/16 07:17:57;;;;;;;8.50;7.65;;;-0.40;99.90;;;;;;5014915;28;20235;-61
2024/01/16 07:20:24;;;;;;;7.25;6.55;;;-0.40;99.90;;;;;;5014639;28;20210;-61
2024/01/16 07:22:51;;;;;;;7.53;6.32;;;-0.40;99.90;;;;;;5014767;28;20319;-61
2024/01/16 07:25:18;;;;;;;9.13;6.70;;;-0.50;99.90;;;;;;5014871;28;20235;-62
2024/01/16 07:27:48;;;;;;;8.77;6.93;;;-0.50;99.90;;;;;;5014296;28;20219;-62
2024/01/16 07:30:15;;;;;;;14.20;8.75;;;-0.60;99.90;;;;;;5006277;28;20679;-62
2024/01/16 07:32:43;;;;;;;9.70;7.65;;;-0.60;99.90;;;;;;5010749;28;20238;-62
2024/01/16 07:35:10;;;;;;;10.35;6.75;;;-0.60;99.90;;;;;;5074521;22;20586;-65
2024/01/16 07:37:37;;;;;;;10.18;6.97;;;-0.70;99.90;;;;;;5072079;28;20292;-66
2024/01/16 07:40:05;;;;;;;7.05;6.30;;;-0.60;99.90;;;;;;5071835;28;20298;-66
2024/01/16 07:42:34;;;;;;;11.13;7.40;;;-0.70;99.90;;;;;;5073635;28;20720;-66
2024/01/16 07:45:04;;;;;;;10.60;7.18;;;-0.60;99.90;;;;;;5074013;28;20643;-66
2024/01/16 07:47:31;;;;;;;9.27;8.48;;;-0.60;99.90;;;;;;5073354;28;20641;-65
2024/01/16 07:49:59;;;;;;;9.90;8.45;;;-0.60;99.90;;;;;;5056752;28;20293;-65
2024/01/16 07:52:26;;;;;;;12.65;7.53;;;-0.60;99.90;;;;;;5053543;28;20201;-65
2024/01/16 07:54:53;;;;;;;13.02;10.90;;;-0.60;99.90;;;;;;5053528;28;20309;-65
2024/01/16 07:57:20;;;;;;;11.00;9.18;;;-0.60;99.90;;;;;;5045102;28;20293;-66
2024/01/16 07:59:47;;;;;;;14.43;9.57;;;-0.60;99.90;;;;;;5053306;28;20253;-64
2024/01/16 08:02:14;;;;;;;10.43;8.35;;;-0.60;99.90;;;;;;5053621;28;20316;-63
2024/01/16 08:04:41;;;;;;;12.25;9.30;;;-0.60;99.90;;;;;;5052954;28;20304;-65
2024/01/16 08:07:09;;;;;;;11.98;10.90;;;-0.60;99.90;;;;;;5053545;28;20288;-64
2024/01/16 08:09:36;;;;;;;17.40;13.32;;;-0.60;99.90;;;;;;5053213;28;20757;-65
2024/01/16 08:12:03;;;;;;;14.00;11.63;;;-0.60;99.90;;;;;;5053375;28;20289;-65
2024/01/16 08:14:30;;;;;;;10.55;9.45;;;-0.50;99.90;;;;;;5052517;28;20709;-65
2024/01/16 08:16:57;;;;;;;13.07;11.05;;;-0.50;99.90;;;;;;5053305;28;20289;-65
2024/01/16 08:19:24;;;;;;;12.70;11.40;;;-0.50;99.90;;;;;;5052386;28;20285;-64
2024/01/16 08:21:51;;;;;;;18.83;13.55;;;-0.40;99.90;;;;;;5052671;28;20734;-64
2024/01/16 08:24:19;;;;;;;17.88;15.98;;;-0.40;99.90;;;;;;5048907;28;20719;-64
2024/01/16 08:26:46;;;;;;;11.43;9.30;;;-0.30;99.90;;;;;;5052262;28;20293;-64
2024/01/16 08:29:13;;;;;;;11.60;10.40;;;-0.30;99.90;;;;;;5048854;28;20610;-64
2024/01/16 08:31:40;;;;;;;10.85;9.45;;;-0.30;99.90;;;;;;5043246;28;20198;-64
2024/01/16 08:34:06;;;;;;;11.45;8.43;;;-0.30;99.90;;;;;;5052093;28;20234;-64
2024/01/16 08:36:33;;;;;;;12.13;8.90;;;-0.20;99.90;;;;;;5049372;28;20289;-65
2024/01/16 08:39:00;;;;;;;12.82;8.20;;;-0.20;99.90;;;;;;5044381;28;20206;-65
2024/01/16 08:41:28;;;;;;;9.43;8.52;;;-0.10;99.90;;;;;;5045700;28;20253;-64
2024/01/16 08:43:56;;;;;;;8.68;7.88;;;-0.10;99.90;;;;;;5048644;28;20736;-64
2024/01/16 08:46:22;;;;;;;10.30;8.82;;;0.00;99.90;;;;;;5042082;28;20579;-65
2024/01/16 08:48:49;;;;;;;10.63;8.70;;;0.00;99.90;;;;;;5051481;28;20291;-64
2024/01/16 08:51:16;;;;;;;14.70;8.85;;;0.00;99.90;;;;;;5049703;28;20199;-65
2024/01/16 08:53:43;;;;;;;12.00;9.90;;;0.10;99.90;;;;;;5051878;28;20309;-63
2024/01/16 08:56:12;;;;;;;13.25;11.35;;;0.10;99.90;;;;;;5051473;28;20206;-64
2024/01/16 08:58:40;;;;;;;10.70;8.70;;;0.20;99.90;;;;;;5050988;28;20199;-64
2024/01/16 09:01:07;;;;;;;8.85;8.05;;;0.20;99.90;;;;;;5049900;28;20292;-64
2024/01/16 09:03:34;;;;;;;10.23;8.10;;;0.20;99.90;;;;;;5050824;28;20242;-65
2024/01/16 09:06:01;;;;;;;13.45;8.85;;;0.30;99.90;;;;;;5049079;28;20198;-64
2024/01/16 09:08:28;;;;;;;10.00;8.95;;;0.30;99.90;;;;;;5047552;28;20758;-65
2024/01/16 09:10:55;;;;;;;11.63;8.43;;;0.30;99.90;;;;;;5048897;28;20298;-64
2024/01/16 09:13:23;;;;;;;11.95;9.55;;;0.40;99.90;;;;;;5050421;28;20607;-65
2024/01/16 09:15:51;;;;;;;9.07;7.78;;;0.40;99.90;;;;;;5050708;28;20210;-63
2024/01/16 09:18:18;;;;;;;8.80;7.63;;;0.50;99.90;;;;;;5047220;28;20198;-64
2024/01/16 09:20:45;;;;;;;8.75;7.82;;;0.60;99.90;;;;;;5049102;28;20272;-64
2024/01/16 09:23:12;;;;;;;12.48;7.32;;;0.60;99.90;;;;;;5050513;28;20598;-65
2024/01/16 09:25:39;;;;;;;7.68;6.75;;;0.60;99.90;;;;;;5046514;28;20203;-64
2024/01/16 09:28:06;;;;;;;9.55;7.90;;;0.60;99.90;;;;;;5050849;28;20294;-64
2024/01/16 09:30:34;;;;;;;9.73;8.32;;;0.70;99.90;;;;;;5049491;28;20869;-65
2024/01/16 09:33:03;;;;;;;9.27;8.38;;;0.70;99.90;;;;;;5051454;28;20277;-64
2024/01/16 09:35:30;;;;;;;8.82;8.02;;;0.80;99.90;;;;;;5048288;28;20253;-65
2024/01/16 09:37:56;;;;;;;8.60;7.80;;;0.90;99.90;;;;;;5046084;28;20202;-64
2024/01/16 09:40:23;;;;;;;9.23;7.80;;;0.90;99.90;;;;;;5046179;28;20207;-65
2024/01/16 09:42:50;;;;;;;9.90;7.22;;;1.00;99.90;;;;;;5049671;28;20612;-64
2024/01/16 09:45:21;;;;;;;8.75;7.28;;;1.00;99.90;;;;;;5048326;28;20222;-65
2024/01/16 09:47:50;;;;;;;9.68;7.93;;;1.10;99.90;;;;;;5049644;28;20253;-65
2024/01/16 09:50:19;;;;;;;13.10;7.07;;;1.00;99.90;;;;;;5050510;28;20210;-64
2024/01/16 09:52:47;;;;;;;13.23;7.13;;;1.00;99.90;;;;;;5050294;28;20289;-66
2024/01/16 09:55:14;;;;;;;9.23;7.25;;;1.10;99.90;;;;;;5049814;28;20241;-66
2024/01/16 09:57:42;;;;;;;8.45;6.65;;;1.20;99.90;;;;;;5049884;28;20205;-67
2024/01/16 10:00:12;;;;;;;7.68;6.82;;;1.20;99.90;;;;;;5049769;28;20206;-66
2024/01/16 10:02:40;;;;;;;11.65;8.40;;;1.30;99.90;;;;;;5050473;28;20233;-66
2024/01/16 10:05:09;;;;;;;8.90;6.80;;;1.30;99.90;;;;;;5043896;28;20229;-64
2024/01/16 10:07:39;;;;;;;7.57;6.47;;;1.40;99.90;;;;;;5047152;28;20458;-66
2024/01/16 10:10:06;;;;;;;10.60;6.30;;;1.40;99.90;;;;;;5045874;28;20212;-65
2024/01/16 10:12:34;;;;;;;6.78;6.18;;;1.40;99.90;;;;;;5039046;28;20198;-66
2024/01/16 10:15:01;;;;;;;8.30;7.13;;;1.50;99.90;;;;;;5046832;28;20226;-65
2024/01/16 10:17:37;;;;;;;7.60;6.20;;;1.60;99.90;;;;;;5041845;28;20204;-66
2024/01/16 10:20:05;;;;;;;7.18;6.47;;;1.60;99.90;;;;;;5047164;28;20213;-65
2024/01/16 10:22:32;;;;;;;12.40;6.50;;;1.60;99.90;;;;;;5049914;28;20249;-65
2024/01/16 10:25:08;;;;;;;10.13;6.35;;;1.60;99.90;;;;;;5049066;28;20711;-65
2024/01/16 10:27:35;;;;;;;8.07;6.65;;;1.60;99.90;;;;;;5044332;28;20208;-66
2024/01/16 10:30:03;;;;;;;5.35;4.80;;;1.60;99.90;;;;;;5048744;28;20198;-67
2024/01/16 10:32:32;;;;;;;5.57;4.95;;;1.60;99.90;;;;;;5045319;28;20201;-66
2024/01/16 10:35:07;;;;;;;5.82;5.20;;;1.60;99.90;;;;;;5048889;28;20325;-67
2024/01/16 10:37:43;;;;;;;6.30;5.70;;;1.60;99.90;;;;;;5049590;28;20202;-66
2024/01/16 10:40:12;;;;;;;7.35;5.35;;;1.60;99.90;;;;;;5048453;28;20210;-66
2024/01/16 10:42:39;;;;;;;7.90;7.10;;;1.60;99.90;;;;;;5050115;28;20605;-66
2024/01/16 10:45:07;;;;;;;6.97;6.20;;;1.60;99.90;;;;;;5048429;28;20237;-66
2024/01/16 10:47:36;;;;;;;6.50;5.90;;;1.60;99.90;;;;;;5049773;28;20205;-67
2024/01/16 10:50:05;;;;;;;9.05;6.75;;;1.70;99.90;;;;;;5048787;28;20677;-67
2024/01/16 10:52:34;;;;;;;7.10;5.60;;;1.70;99.90;;;;;;5047677;28;20206;-67
2024/01/16 10:55:04;;;;;;;6.53;5.50;;;1.80;99.90;;;;;;5046911;28;20222;-67
2024/01/16 10:57:34;;;;;;;8.80;4.90;;;1.90;99.90;;;;;;5048402;28;20206;-66
2024/01/16 11:00:06;;;;;;;5.88;5.38;;;2.00;99.90;;;;;;5048157;28;20577;-67
2024/01/16 11:02:42;;;;;;;6.38;5.30;;;2.00;99.90;;;;;;5050036;28;20214;-66
2024/01/16 11:05:11;;;;;;;12.23;6.50;;;2.00;99.90;;;;;;5047959;28;20222;-67
2024/01/16 11:07:39;;;;;;;11.43;6.25;;;2.10;99.90;;;;;;5049797;28;20210;-67
2024/01/16 11:10:08;;;;;;;6.43;4.93;;;2.10;99.90;;;;;;5048424;28;20210;-67
2024/01/16 11:12:39;;;;;;;6.22;5.25;;;2.20;99.90;;;;;;5050109;28;20285;-67
2024/01/16 11:15:07;;;;;;;6.72;5.38;;;2.20;99.90;;;;;;5048040;28;20774;-67
2024/01/16 11:17:35;;;;;;;5.07;4.68;;;2.20;99.90;;;;;;5049772;28;20264;-68
2024/01/16 11:20:06;;;;;;;8.25;7.47;;;2.20;99.90;;;;;;5044042;28;20678;-67
2024/01/16 11:22:36;;;;;;;6.43;5.57;;;2.20;99.90;;;;;;5050441;28;20229;-66
2024/01/16 11:25:10;;;;;;;8.27;6.90;;;2.20;99.90;;;;;;5051167;28;20242;-66
2024/01/16 11:27:39;;;;;;;5.95;5.13;;;2.20;99.90;;;;;;5053150;28;20217;-67
2024/01/16 11:30:09;;;;;;;6.63;5.90;;;2.20;99.90;;;;;;5052456;28;20577;-67
2024/01/16 11:32:37;;;;;;;8.18;5.38;;;2.30;99.90;;;;;;5053211;28;20202;-67
2024/01/16 11:35:05;;;;;;;6.15;4.93;;;2.20;99.90;;;;;;5049032;28;20238;-67
2024/01/16 11:37:34;;;;;;;7.13;6.25;;;2.20;99.90;;;;;;5053307;28;20202;-67
2024/01/16 11:40:24;;;;;;;7.15;6.45;;;2.20;99.90;;;;;;5052542;28;20289;-67
2024/01/16 11:42:53;;;;;;;6.93;5.90;;;2.20;99.90;;;;;;5053163;28;20229;-67
2024/01/16 11:45:52;;;;;;;9.13;4.53;;;2.30;99.90;;;;;;5045756;28;20234;-67
2024/01/16 11:48:20;;;;;;;7.47;4.10;;;2.30;99.90;;;;;;5046448;28;20207;-67
2024/01/16 11:50:47;;;;;;;5.05;4.65;;;2.20;99.90;;;;;;5051819;28;20698;-67
2024/01/16 11:53:36;;;;;;;6.68;4.22;;;2.20;99.90;;;;;;5053433;28;20795;-67
2024/01/16 11:56:35;;;;;;;6.80;4.78;;;2.20;99.90;;;;;;5051053;28;20224;-67
2024/01/16 11:59:19;;;;;;;5.78;5.28;;;2.40;99.90;;;;;;5042611;28;20261;-67
2024/01/16 12:01:46;;;;;;;5.63;5.13;;;2.40;99.90;;;;;;5048048;28;20298;-67
2024/01/16 12:04:18;;;;;;;8.93;5.93;;;2.50;99.90;;;;;;5045827;28;20230;-67
2024/01/16 12:06:44;;;;;;;6.95;5.95;;;2.60;99.90;;;;;;5052328;28;20230;-68
2024/01/16 12:09:16;;;;;;;8.60;5.72;;;2.70;99.90;;;;;;5051129;28;20206;-68
2024/01/16 12:11:45;;;;;;;6.88;4.68;;;2.80;99.90;;;;;;5048062;28;20206;-68
2024/01/16 12:14:13;;;;;;;6.75;6.15;;;2.80;99.90;;;;;;5051688;28;20598;-67
2024/01/16 12:16:40;;;;;;;5.47;4.93;;;2.80;99.90;;;;;;5052390;28;20629;-68
2024/01/16 12:19:08;;;;;;;8.50;4.97;;;2.90;99.90;;;;;;5052089;28;20588;-67
2024/01/16 12:21:36;;;;;;;6.32;4.95;;;2.90;99.90;;;;;;5051075;28;20656;-68
2024/01/16 12:24:03;;;;;;;4.32;3.70;;;3.00;99.90;;;;;;5051907;28;20697;-68
2024/01/16 12:26:31;;;;;;;7.20;4.78;;;3.00;99.90;;;;;;5051788;28;20230;-68
2024/01/16 12:28:58;;;;;;;7.00;4.65;;;2.90;99.90;;;;;;5052099;28;20210;-68
2024/01/16 12:31:28;;;;;;;6.50;4.88;;;2.80;99.90;;;;;;5047445;28;20207;-68
2024/01/16 12:34:05;;;;;;;7.20;4.05;;;2.70;99.90;;;;;;5045728;28;20257;-68
2024/01/16 12:36:32;;;;;;;6.75;5.03;;;2.70;99.90;;;;;;5041267;28;20241;-68
2024/01/16 12:38:58;;;;;;;7.10;4.35;;;2.80;99.90;;;;;;5051596;28;20289;-68
2024/01/16 12:41:27;;;;;;;7.90;4.55;;;2.90;99.90;;;;;;5050441;28;20665;-68
2024/01/16 12:43:53;;;;;;;6.43;4.47;;;3.00;99.90;;;;;;5051081;28;20668;-67
2024/01/16 12:46:20;;;;;;;6.25;5.65;;;3.00;99.90;;;;;;5043680;28;20199;-68
2024/01/16 12:48:49;;;;;;;7.60;5.65;;;3.00;99.90;;;;;;5049925;28;20286;-68
2024/01/16 12:51:22;;;;;;;6.10;5.50;;;3.00;99.90;;;;;;5051009;28;20211;-68
2024/01/16 12:53:49;;;;;;;5.10;4.00;;;3.00;99.90;;;;;;5051598;28;20223;-68
2024/01/16 12:56:19;;;;;;;5.28;4.78;;;3.00;99.90;;;;;;5036953;28;20199;-67